sensor_id;sensor_type;location;lat;lon;timestamp;P1;durP1;ratioP1;P2;durP2;ratioP2
56399;SDS011;42298;53.638;9.876;2022-08-11T00:01:48;8.48;;;3.05;;
56399;SDS011;42298;53.638;9.876;2022-08-11T00:04:17;6.32;;;2.97;;
56399;SDS011;42298;53.638;9.876;2022-08-11T00:06:45;5.13;;;2.72;;
56399;SDS011;42298;53.638;9.876;2022-08-11T00:09:16;6.15;;;2.78;;
56399;SDS011;42298;53.638;9.876;2022-08-11T00:11:44;5.63;;;2.88;;
56399;SDS011;42298;53.638;9.876;2022-08-11T00:14:22;5.60;;;3.20;;
56399;SDS011;42298;53.638;9.876;2022-08-11T00:16:58;7.20;;;2.97;;
56399;SDS011;42298;53.638;9.876;2022-08-11T00:22:30;7.63;;;2.85;;
56399;SDS011;42298;53.638;9.876;2022-08-11T00:24:56;5.75;;;3.25;;
56399;SDS011;42298;53.638;9.876;2022-08-11T00:27:32;6.00;;;2.72;;
56399;SDS011;42298;53.638;9.876;2022-08-11T00:29:58;5.47;;;3.03;;
56399;SDS011;42298;53.638;9.876;2022-08-11T00:32:24;6.82;;;3.22;;
56399;SDS011;42298;53.638;9.876;2022-08-11T00:34:50;6.45;;;2.92;;
56399;SDS011;42298;53.638;9.876;2022-08-11T00:37:19;5.25;;;2.80;;
56399;SDS011;42298;53.638;9.876;2022-08-11T00:39:47;5.63;;;3.10;;
56399;SDS011;42298;53.638;9.876;2022-08-11T00:45:08;7.03;;;2.95;;
56399;SDS011;42298;53.638;9.876;2022-08-11T00:47:55;5.97;;;2.97;;
56399;SDS011;42298;53.638;9.876;2022-08-11T00:50:45;6.65;;;3.40;;
56399;SDS011;42298;53.638;9.876;2022-08-11T00:58:51;4.68;;;2.95;;
56399;SDS011;42298;53.638;9.876;2022-08-11T01:01:47;8.55;;;3.17;;
56399;SDS011;42298;53.638;9.876;2022-08-11T01:07:23;5.15;;;3.15;;
56399;SDS011;42298;53.638;9.876;2022-08-11T01:10:39;5.00;;;2.80;;
56399;SDS011;42298;53.638;9.876;2022-08-11T01:25:36;6.47;;;3.22;;
56399;SDS011;42298;53.638;9.876;2022-08-11T01:45:58;5.75;;;2.58;;
56399;SDS011;42298;53.638;9.876;2022-08-11T01:48:34;5.72;;;3.05;;
56399;SDS011;42298;53.638;9.876;2022-08-11T01:54:30;5.18;;;2.92;;
56399;SDS011;42298;53.638;9.876;2022-08-11T02:00:02;5.03;;;2.70;;
56399;SDS011;42298;53.638;9.876;2022-08-11T02:05:25;4.20;;;2.83;;
56399;SDS011;42298;53.638;9.876;2022-08-11T02:08:10;4.78;;;2.90;;
56399;SDS011;42298;53.638;9.876;2022-08-11T02:10:49;6.00;;;2.88;;
56399;SDS011;42298;53.638;9.876;2022-08-11T02:13:46;5.57;;;3.10;;
56399;SDS011;42298;53.638;9.876;2022-08-11T02:18:52;4.47;;;2.55;;
56399;SDS011;42298;53.638;9.876;2022-08-11T02:21:51;6.97;;;3.13;;
56399;SDS011;42298;53.638;9.876;2022-08-11T02:27:35;5.00;;;2.72;;
56399;SDS011;42298;53.638;9.876;2022-08-11T02:30:06;6.07;;;3.05;;
56399;SDS011;42298;53.638;9.876;2022-08-11T02:32:38;3.20;;;2.80;;
56399;SDS011;42298;53.638;9.876;2022-08-11T02:35:41;7.32;;;3.15;;
56399;SDS011;42298;53.638;9.876;2022-08-11T02:38:13;5.63;;;2.72;;
56399;SDS011;42298;53.638;9.876;2022-08-11T02:40:55;4.78;;;2.60;;
56399;SDS011;42298;53.638;9.876;2022-08-11T02:46:05;4.38;;;2.88;;
56399;SDS011;42298;53.638;9.876;2022-08-11T02:54:43;4.78;;;2.60;;
56399;SDS011;42298;53.638;9.876;2022-08-11T02:57:32;6.03;;;3.25;;
56399;SDS011;42298;53.638;9.876;2022-08-11T03:00:06;5.03;;;3.00;;
56399;SDS011;42298;53.638;9.876;2022-08-11T03:02:42;5.20;;;2.90;;
56399;SDS011;42298;53.638;9.876;2022-08-11T03:08:22;7.97;;;3.13;;
56399;SDS011;42298;53.638;9.876;2022-08-11T03:13:56;8.23;;;3.22;;
56399;SDS011;42298;53.638;9.876;2022-08-11T03:19:45;6.38;;;2.90;;
56399;SDS011;42298;53.638;9.876;2022-08-11T03:22:24;3.50;;;2.60;;
56399;SDS011;42298;53.638;9.876;2022-08-11T03:33:48;5.75;;;3.10;;
56399;SDS011;42298;53.638;9.876;2022-08-11T03:42:00;6.47;;;3.53;;
56399;SDS011;42298;53.638;9.876;2022-08-11T03:47:31;5.00;;;2.97;;
56399;SDS011;42298;53.638;9.876;2022-08-11T04:19:46;6.05;;;3.08;;
56399;SDS011;42298;53.638;9.876;2022-08-11T04:47:06;6.22;;;3.17;;
56399;SDS011;42298;53.638;9.876;2022-08-11T04:50:22;6.57;;;3.00;;
56399;SDS011;42298;53.638;9.876;2022-08-11T04:53:28;5.50;;;2.80;;
56399;SDS011;42298;53.638;9.876;2022-08-11T04:56:25;5.13;;;3.08;;
56399;SDS011;42298;53.638;9.876;2022-08-11T05:13:57;4.18;;;2.50;;
56399;SDS011;42298;53.638;9.876;2022-08-11T05:17:04;5.72;;;2.75;;
56399;SDS011;42298;53.638;9.876;2022-08-11T05:19:53;6.72;;;2.67;;
56399;SDS011;42298;53.638;9.876;2022-08-11T05:22:37;6.38;;;2.50;;
56399;SDS011;42298;53.638;9.876;2022-08-11T05:25:44;6.05;;;2.90;;
56399;SDS011;42298;53.638;9.876;2022-08-11T05:28:35;4.60;;;2.70;;
56399;SDS011;42298;53.638;9.876;2022-08-11T05:31:31;6.47;;;3.05;;
56399;SDS011;42298;53.638;9.876;2022-08-11T05:34:21;4.32;;;2.30;;
56399;SDS011;42298;53.638;9.876;2022-08-11T05:37:10;6.32;;;2.70;;
56399;SDS011;42298;53.638;9.876;2022-08-11T05:39:49;5.45;;;2.45;;
56399;SDS011;42298;53.638;9.876;2022-08-11T05:42:37;6.35;;;2.55;;
56399;SDS011;42298;53.638;9.876;2022-08-11T05:45:26;7.05;;;3.03;;
56399;SDS011;42298;53.638;9.876;2022-08-11T05:48:10;5.20;;;2.75;;
56399;SDS011;42298;53.638;9.876;2022-08-11T05:50:57;7.05;;;2.75;;
56399;SDS011;42298;53.638;9.876;2022-08-11T05:53:44;6.95;;;2.92;;
56399;SDS011;42298;53.638;9.876;2022-08-11T05:56:30;6.82;;;2.40;;
56399;SDS011;42298;53.638;9.876;2022-08-11T05:58:58;4.53;;;2.47;;
56399;SDS011;42298;53.638;9.876;2022-08-11T06:01:30;5.25;;;2.55;;
56399;SDS011;42298;53.638;9.876;2022-08-11T06:03:58;4.90;;;2.30;;
56399;SDS011;42298;53.638;9.876;2022-08-11T06:06:38;4.82;;;2.58;;
56399;SDS011;42298;53.638;9.876;2022-08-11T06:09:10;7.55;;;2.55;;
56399;SDS011;42298;53.638;9.876;2022-08-11T06:11:38;5.38;;;2.53;;
56399;SDS011;42298;53.638;9.876;2022-08-11T06:14:07;6.38;;;2.40;;
56399;SDS011;42298;53.638;9.876;2022-08-11T06:16:34;5.18;;;2.70;;
56399;SDS011;42298;53.638;9.876;2022-08-11T06:19:01;6.95;;;2.58;;
56399;SDS011;42298;53.638;9.876;2022-08-11T06:21:28;7.38;;;2.47;;
56399;SDS011;42298;53.638;9.876;2022-08-11T06:23:58;6.45;;;2.95;;
56399;SDS011;42298;53.638;9.876;2022-08-11T06:26:24;6.45;;;2.88;;
56399;SDS011;42298;53.638;9.876;2022-08-11T06:28:50;8.57;;;3.15;;
56399;SDS011;42298;53.638;9.876;2022-08-11T06:31:16;6.25;;;2.28;;
56399;SDS011;42298;53.638;9.876;2022-08-11T06:33:52;5.18;;;2.50;;
56399;SDS011;42298;53.638;9.876;2022-08-11T06:36:33;6.75;;;2.78;;
56399;SDS011;42298;53.638;9.876;2022-08-11T06:42:08;5.70;;;2.90;;
56399;SDS011;42298;53.638;9.876;2022-08-11T06:44:39;8.93;;;2.70;;
56399;SDS011;42298;53.638;9.876;2022-08-11T06:47:15;4.93;;;2.20;;
56399;SDS011;42298;53.638;9.876;2022-08-11T06:49:45;5.20;;;2.38;;
56399;SDS011;42298;53.638;9.876;2022-08-11T06:52:34;6.00;;;2.72;;
56399;SDS011;42298;53.638;9.876;2022-08-11T06:55:09;4.28;;;2.30;;
56399;SDS011;42298;53.638;9.876;2022-08-11T06:57:38;3.90;;;2.25;;
56399;SDS011;42298;53.638;9.876;2022-08-11T07:00:27;8.40;;;2.60;;
56399;SDS011;42298;53.638;9.876;2022-08-11T07:03:02;6.68;;;2.72;;
56399;SDS011;42298;53.638;9.876;2022-08-11T07:05:47;5.45;;;2.40;;
56399;SDS011;42298;53.638;9.876;2022-08-11T07:11:36;7.80;;;2.72;;
56399;SDS011;42298;53.638;9.876;2022-08-11T07:14:33;7.82;;;2.50;;
56399;SDS011;42298;53.638;9.876;2022-08-11T07:17:19;6.43;;;2.35;;
56399;SDS011;42298;53.638;9.876;2022-08-11T07:19:50;6.05;;;2.88;;
56399;SDS011;42298;53.638;9.876;2022-08-11T07:22:37;4.75;;;2.17;;
56399;SDS011;42298;53.638;9.876;2022-08-11T07:25:33;6.57;;;2.88;;
56399;SDS011;42298;53.638;9.876;2022-08-11T07:28:23;7.22;;;2.50;;
56399;SDS011;42298;53.638;9.876;2022-08-11T07:31:10;5.18;;;2.53;;
56399;SDS011;42298;53.638;9.876;2022-08-11T07:33:46;8.13;;;2.80;;
56399;SDS011;42298;53.638;9.876;2022-08-11T07:36:14;5.30;;;2.30;;
56399;SDS011;42298;53.638;9.876;2022-08-11T07:38:43;3.38;;;2.30;;
56399;SDS011;42298;53.638;9.876;2022-08-11T07:41:16;4.80;;;2.15;;
56399;SDS011;42298;53.638;9.876;2022-08-11T07:43:44;6.97;;;2.58;;
56399;SDS011;42298;53.638;9.876;2022-08-11T07:46:15;7.63;;;2.60;;
56399;SDS011;42298;53.638;9.876;2022-08-11T07:49:01;8.55;;;2.30;;
56399;SDS011;42298;53.638;9.876;2022-08-11T07:51:47;4.68;;;2.40;;
56399;SDS011;42298;53.638;9.876;2022-08-11T07:54:31;7.80;;;2.60;;
56399;SDS011;42298;53.638;9.876;2022-08-11T07:56:57;4.75;;;2.40;;
56399;SDS011;42298;53.638;9.876;2022-08-11T07:59:23;5.05;;;2.28;;
56399;SDS011;42298;53.638;9.876;2022-08-11T08:02:09;6.50;;;2.55;;
56399;SDS011;42298;53.638;9.876;2022-08-11T08:04:54;6.53;;;2.92;;
56399;SDS011;42298;53.638;9.876;2022-08-11T08:07:40;6.30;;;2.50;;
56399;SDS011;42298;53.638;9.876;2022-08-11T08:10:24;5.97;;;2.30;;
56399;SDS011;42298;53.638;9.876;2022-08-11T08:13:08;6.15;;;2.45;;
56399;SDS011;42298;53.638;9.876;2022-08-11T08:15:52;5.20;;;2.40;;
56399;SDS011;42298;53.638;9.876;2022-08-11T08:18:37;5.68;;;2.50;;
56399;SDS011;42298;53.638;9.876;2022-08-11T08:21:04;5.72;;;2.30;;
56399;SDS011;42298;53.638;9.876;2022-08-11T08:23:38;7.78;;;2.55;;
56399;SDS011;42298;53.638;9.876;2022-08-11T08:26:07;5.18;;;2.50;;
56399;SDS011;42298;53.638;9.876;2022-08-11T08:28:54;8.38;;;2.72;;
56399;SDS011;42298;53.638;9.876;2022-08-11T08:31:41;5.05;;;2.50;;
56399;SDS011;42298;53.638;9.876;2022-08-11T08:34:08;5.00;;;2.20;;
56399;SDS011;42298;53.638;9.876;2022-08-11T08:36:34;9.57;;;2.55;;
56399;SDS011;42298;53.638;9.876;2022-08-11T08:39:01;6.40;;;2.63;;
56399;SDS011;42298;53.638;9.876;2022-08-11T08:41:27;4.40;;;2.25;;
56399;SDS011;42298;53.638;9.876;2022-08-11T08:43:54;8.20;;;2.50;;
56399;SDS011;42298;53.638;9.876;2022-08-11T08:46:31;7.10;;;2.60;;
56399;SDS011;42298;53.638;9.876;2022-08-11T08:49:01;5.82;;;2.45;;
56399;SDS011;42298;53.638;9.876;2022-08-11T08:51:28;7.03;;;2.53;;
56399;SDS011;42298;53.638;9.876;2022-08-11T08:54:04;7.25;;;2.70;;
56399;SDS011;42298;53.638;9.876;2022-08-11T08:56:31;6.00;;;2.70;;
56399;SDS011;42298;53.638;9.876;2022-08-11T08:58:58;5.35;;;2.55;;
56399;SDS011;42298;53.638;9.876;2022-08-11T09:01:31;4.05;;;1.95;;
56399;SDS011;42298;53.638;9.876;2022-08-11T09:04:02;3.85;;;2.20;;
56399;SDS011;42298;53.638;9.876;2022-08-11T09:06:36;4.47;;;2.10;;
56399;SDS011;42298;53.638;9.876;2022-08-11T09:09:07;4.40;;;2.00;;
56399;SDS011;42298;53.638;9.876;2022-08-11T09:11:34;5.20;;;1.95;;
56399;SDS011;42298;53.638;9.876;2022-08-11T09:14:21;4.13;;;1.95;;
56399;SDS011;42298;53.638;9.876;2022-08-11T09:16:48;4.43;;;2.10;;
56399;SDS011;42298;53.638;9.876;2022-08-11T09:19:16;5.82;;;2.10;;
56399;SDS011;42298;53.638;9.876;2022-08-11T09:21:47;5.78;;;1.95;;
56399;SDS011;42298;53.638;9.876;2022-08-11T09:24:35;5.78;;;1.80;;
56399;SDS011;42298;53.638;9.876;2022-08-11T09:27:20;3.40;;;1.60;;
56399;SDS011;42298;53.638;9.876;2022-08-11T09:29:47;3.45;;;1.75;;
56399;SDS011;42298;53.638;9.876;2022-08-11T09:32:13;4.50;;;1.98;;
56399;SDS011;42298;53.638;9.876;2022-08-11T09:34:39;5.38;;;1.90;;
56399;SDS011;42298;53.638;9.876;2022-08-11T09:37:04;3.28;;;1.80;;
56399;SDS011;42298;53.638;9.876;2022-08-11T09:39:50;2.92;;;1.77;;
56399;SDS011;42298;53.638;9.876;2022-08-11T09:42:35;7.70;;;2.20;;
56399;SDS011;42298;53.638;9.876;2022-08-11T09:45:19;5.70;;;2.20;;
56399;SDS011;42298;53.638;9.876;2022-08-11T09:47:45;3.22;;;2.08;;
56399;SDS011;42298;53.638;9.876;2022-08-11T09:50:11;5.43;;;1.88;;
56399;SDS011;42298;53.638;9.876;2022-08-11T09:52:40;4.95;;;1.92;;
56399;SDS011;42298;53.638;9.876;2022-08-11T09:55:06;3.17;;;1.80;;
56399;SDS011;42298;53.638;9.876;2022-08-11T09:57:37;4.85;;;1.80;;
56399;SDS011;42298;53.638;9.876;2022-08-11T10:00:27;3.45;;;2.00;;
56399;SDS011;42298;53.638;9.876;2022-08-11T10:02:54;6.75;;;1.75;;
56399;SDS011;42298;53.638;9.876;2022-08-11T10:05:20;4.75;;;1.75;;
56399;SDS011;42298;53.638;9.876;2022-08-11T10:08:06;8.50;;;2.00;;
56399;SDS011;42298;53.638;9.876;2022-08-11T10:10:36;6.30;;;1.60;;
56399;SDS011;42298;53.638;9.876;2022-08-11T10:13:06;5.53;;;1.88;;
56399;SDS011;42298;53.638;9.876;2022-08-11T10:15:36;4.22;;;1.98;;
56399;SDS011;42298;53.638;9.876;2022-08-11T10:18:03;3.67;;;1.88;;
56399;SDS011;42298;53.638;9.876;2022-08-11T10:20:49;4.50;;;1.85;;
56399;SDS011;42298;53.638;9.876;2022-08-11T10:23:18;5.00;;;1.60;;
56399;SDS011;42298;53.638;9.876;2022-08-11T10:26:02;6.00;;;1.90;;
56399;SDS011;42298;53.638;9.876;2022-08-11T10:28:47;2.88;;;1.80;;
56399;SDS011;42298;53.638;9.876;2022-08-11T10:31:14;5.57;;;1.92;;
56399;SDS011;42298;53.638;9.876;2022-08-11T10:33:58;6.28;;;2.05;;
56399;SDS011;42298;53.638;9.876;2022-08-11T10:36:27;3.58;;;1.90;;
56399;SDS011;42298;53.638;9.876;2022-08-11T10:38:55;4.13;;;1.73;;
56399;SDS011;42298;53.638;9.876;2022-08-11T10:41:22;5.28;;;1.92;;
56399;SDS011;42298;53.638;9.876;2022-08-11T10:44:08;3.97;;;2.10;;
56399;SDS011;42298;53.638;9.876;2022-08-11T10:46:35;3.60;;;1.75;;
56399;SDS011;42298;53.638;9.876;2022-08-11T10:49:21;6.53;;;2.22;;
56399;SDS011;42298;53.638;9.876;2022-08-11T10:51:48;3.67;;;1.90;;
56399;SDS011;42298;53.638;9.876;2022-08-11T10:54:33;5.53;;;2.20;;
56399;SDS011;42298;53.638;9.876;2022-08-11T10:57:18;4.10;;;1.98;;
56399;SDS011;42298;53.638;9.876;2022-08-11T11:00:03;3.40;;;1.60;;
56399;SDS011;42298;53.638;9.876;2022-08-11T11:02:31;5.72;;;1.90;;
56399;SDS011;42298;53.638;9.876;2022-08-11T11:07:39;4.18;;;1.77;;
56399;SDS011;42298;53.638;9.876;2022-08-11T11:10:14;4.43;;;1.83;;
56399;SDS011;42298;53.638;9.876;2022-08-11T11:12:46;2.95;;;1.60;;
56399;SDS011;42298;53.638;9.876;2022-08-11T11:15:37;5.55;;;2.05;;
56399;SDS011;42298;53.638;9.876;2022-08-11T11:18:26;6.30;;;1.80;;
56399;SDS011;42298;53.638;9.876;2022-08-11T11:20:57;4.90;;;1.90;;
56399;SDS011;42298;53.638;9.876;2022-08-11T11:23:37;10.65;;;1.95;;
56399;SDS011;42298;53.638;9.876;2022-08-11T11:31:14;4.70;;;1.90;;
56399;SDS011;42298;53.638;9.876;2022-08-11T11:39:20;3.30;;;1.65;;
56399;SDS011;42298;53.638;9.876;2022-08-11T11:41:48;2.58;;;1.55;;
56399;SDS011;42298;53.638;9.876;2022-08-11T11:44:17;4.78;;;1.88;;
56399;SDS011;42298;53.638;9.876;2022-08-11T11:46:45;7.40;;;1.92;;
56399;SDS011;42298;53.638;9.876;2022-08-11T11:49:11;2.47;;;1.70;;
56399;SDS011;42298;53.638;9.876;2022-08-11T11:51:40;5.03;;;1.88;;
56399;SDS011;42298;53.638;9.876;2022-08-11T11:54:07;2.53;;;1.73;;
56399;SDS011;42298;53.638;9.876;2022-08-11T11:56:34;3.05;;;1.80;;
56399;SDS011;42298;53.638;9.876;2022-08-11T11:59:01;3.85;;;1.73;;
56399;SDS011;42298;53.638;9.876;2022-08-11T12:01:46;3.50;;;1.80;;
56399;SDS011;42298;53.638;9.876;2022-08-11T12:04:12;3.75;;;1.92;;
56399;SDS011;42298;53.638;9.876;2022-08-11T12:06:39;4.03;;;2.08;;
56399;SDS011;42298;53.638;9.876;2022-08-11T12:09:06;2.70;;;1.85;;
56399;SDS011;42298;53.638;9.876;2022-08-11T12:11:31;3.45;;;1.80;;
56399;SDS011;42298;53.638;9.876;2022-08-11T12:14:19;4.35;;;1.85;;
56399;SDS011;42298;53.638;9.876;2022-08-11T12:16:46;2.65;;;1.60;;
56399;SDS011;42298;53.638;9.876;2022-08-11T12:19:16;5.97;;;2.17;;
56399;SDS011;42298;53.638;9.876;2022-08-11T12:21:45;2.78;;;1.67;;
56399;SDS011;42298;53.638;9.876;2022-08-11T12:24:30;8.52;;;1.83;;
56399;SDS011;42298;53.638;9.876;2022-08-11T12:27:16;8.80;;;2.42;;
56399;SDS011;42298;53.638;9.876;2022-08-11T12:29:46;3.45;;;2.10;;
56399;SDS011;42298;53.638;9.876;2022-08-11T12:32:13;8.95;;;2.15;;
56399;SDS011;42298;53.638;9.876;2022-08-11T12:34:39;5.10;;;2.17;;
56399;SDS011;42298;53.638;9.876;2022-08-11T12:37:04;7.43;;;2.08;;
56399;SDS011;42298;53.638;9.876;2022-08-11T12:39:37;3.75;;;1.65;;
56399;SDS011;42298;53.638;9.876;2022-08-11T12:42:25;4.70;;;2.10;;
56399;SDS011;42298;53.638;9.876;2022-08-11T12:45:12;2.03;;;1.60;;
56399;SDS011;42298;53.638;9.876;2022-08-11T12:48:01;3.80;;;1.80;;
56399;SDS011;42298;53.638;9.876;2022-08-11T12:50:54;4.63;;;1.50;;
56399;SDS011;42298;53.638;9.876;2022-08-11T12:53:42;3.08;;;1.33;;
56399;SDS011;42298;53.638;9.876;2022-08-11T12:56:15;6.63;;;1.50;;
56399;SDS011;42298;53.638;9.876;2022-08-11T12:59:01;2.90;;;1.30;;
56399;SDS011;42298;53.638;9.876;2022-08-11T13:01:46;4.93;;;1.50;;
56399;SDS011;42298;53.638;9.876;2022-08-11T13:04:30;3.30;;;1.58;;
56399;SDS011;42298;53.638;9.876;2022-08-11T13:07:15;1.92;;;1.48;;
56399;SDS011;42298;53.638;9.876;2022-08-11T13:09:41;2.15;;;1.40;;
56399;SDS011;42298;53.638;9.876;2022-08-11T13:12:08;3.88;;;1.48;;
56399;SDS011;42298;53.638;9.876;2022-08-11T13:14:53;4.72;;;1.33;;
56399;SDS011;42298;53.638;9.876;2022-08-11T13:17:19;3.83;;;1.48;;
56399;SDS011;42298;53.638;9.876;2022-08-11T13:19:45;4.63;;;1.55;;
56399;SDS011;42298;53.638;9.876;2022-08-11T13:22:14;2.53;;;1.40;;
56399;SDS011;42298;53.638;9.876;2022-08-11T13:24:41;1.77;;;1.38;;
56399;SDS011;42298;53.638;9.876;2022-08-11T13:27:08;1.50;;;1.40;;
56399;SDS011;42298;53.638;9.876;2022-08-11T13:29:36;4.95;;;1.58;;
56399;SDS011;42298;53.638;9.876;2022-08-11T13:32:04;6.00;;;1.45;;
56399;SDS011;42298;53.638;9.876;2022-08-11T13:34:29;2.20;;;1.50;;
56399;SDS011;42298;53.638;9.876;2022-08-11T13:36:57;4.50;;;1.50;;
56399;SDS011;42298;53.638;9.876;2022-08-11T13:39:27;2.50;;;1.50;;
56399;SDS011;42298;53.638;9.876;2022-08-11T13:41:55;1.80;;;1.30;;
56399;SDS011;42298;53.638;9.876;2022-08-11T13:44:24;2.25;;;1.40;;
56399;SDS011;42298;53.638;9.876;2022-08-11T13:46:52;5.43;;;1.55;;
56399;SDS011;42298;53.638;9.876;2022-08-11T13:49:20;3.58;;;1.63;;
56399;SDS011;42298;53.638;9.876;2022-08-11T13:51:46;2.95;;;1.52;;
56399;SDS011;42298;53.638;9.876;2022-08-11T13:54:15;3.58;;;1.60;;
56399;SDS011;42298;53.638;9.876;2022-08-11T13:56:52;3.10;;;1.52;;
56399;SDS011;42298;53.638;9.876;2022-08-11T13:59:20;3.10;;;1.45;;
56399;SDS011;42298;53.638;9.876;2022-08-11T14:02:10;1.50;;;1.40;;
56399;SDS011;42298;53.638;9.876;2022-08-11T14:07:05;2.70;;;1.50;;
56399;SDS011;42298;53.638;9.876;2022-08-11T14:09:36;3.78;;;1.60;;
56399;SDS011;42298;53.638;9.876;2022-08-11T14:12:08;3.10;;;1.52;;
56399;SDS011;42298;53.638;9.876;2022-08-11T14:15:09;2.50;;;1.20;;
56399;SDS011;42298;53.638;9.876;2022-08-11T14:17:43;5.53;;;1.38;;
56399;SDS011;42298;53.638;9.876;2022-08-11T14:20:14;3.05;;;1.40;;
56399;SDS011;42298;53.638;9.876;2022-08-11T14:22:41;4.95;;;1.50;;
56399;SDS011;42298;53.638;9.876;2022-08-11T14:25:08;1.30;;;1.20;;
56399;SDS011;42298;53.638;9.876;2022-08-11T14:27:35;4.25;;;1.50;;
56399;SDS011;42298;53.638;9.876;2022-08-11T14:30:01;2.03;;;1.45;;
56399;SDS011;42298;53.638;9.876;2022-08-11T14:32:28;1.58;;;1.25;;
56399;SDS011;42298;53.638;9.876;2022-08-11T14:34:54;4.57;;;1.33;;
56399;SDS011;42298;53.638;9.876;2022-08-11T14:37:20;3.33;;;1.50;;
56399;SDS011;42298;53.638;9.876;2022-08-11T14:39:49;1.80;;;1.17;;
56399;SDS011;42298;53.638;9.876;2022-08-11T14:42:18;1.60;;;1.23;;
56399;SDS011;42298;53.638;9.876;2022-08-11T14:45:08;3.40;;;1.25;;
56399;SDS011;42298;53.638;9.876;2022-08-11T14:48:01;3.08;;;1.17;;
56399;SDS011;42298;53.638;9.876;2022-08-11T14:50:30;2.53;;;1.58;;
56399;SDS011;42298;53.638;9.876;2022-08-11T14:52:58;4.47;;;1.50;;
56399;SDS011;42298;53.638;9.876;2022-08-11T14:55:29;2.60;;;1.50;;
56399;SDS011;42298;53.638;9.876;2022-08-11T14:58:18;5.00;;;1.65;;
56399;SDS011;42298;53.638;9.876;2022-08-11T15:00:45;4.03;;;1.50;;
56399;SDS011;42298;53.638;9.876;2022-08-11T15:03:15;5.93;;;1.50;;
56399;SDS011;42298;53.638;9.876;2022-08-11T15:05:52;5.55;;;1.70;;
56399;SDS011;42298;53.638;9.876;2022-08-11T15:08:20;2.92;;;1.38;;
56399;SDS011;42298;53.638;9.876;2022-08-11T15:11:07;5.15;;;1.67;;
56399;SDS011;42298;53.638;9.876;2022-08-11T15:13:55;2.97;;;1.45;;
56399;SDS011;42298;53.638;9.876;2022-08-11T15:16:24;4.93;;;1.67;;
56399;SDS011;42298;53.638;9.876;2022-08-11T15:19:09;4.43;;;1.55;;
56399;SDS011;42298;53.638;9.876;2022-08-11T15:21:36;3.08;;;1.40;;
56399;SDS011;42298;53.638;9.876;2022-08-11T15:24:20;3.55;;;1.38;;
56399;SDS011;42298;53.638;9.876;2022-08-11T15:26:45;3.78;;;1.40;;
56399;SDS011;42298;53.638;9.876;2022-08-11T15:29:32;4.95;;;1.50;;
56399;SDS011;42298;53.638;9.876;2022-08-11T15:32:19;3.67;;;1.50;;
56399;SDS011;42298;53.638;9.876;2022-08-11T15:34:49;3.17;;;1.60;;
56399;SDS011;42298;53.638;9.876;2022-08-11T15:37:36;5.13;;;1.77;;
56399;SDS011;42298;53.638;9.876;2022-08-11T15:40:09;3.20;;;1.70;;
56399;SDS011;42298;53.638;9.876;2022-08-11T15:45:38;4.22;;;1.42;;
56399;SDS011;42298;53.638;9.876;2022-08-11T15:48:18;8.52;;;1.85;;
56399;SDS011;42298;53.638;9.876;2022-08-11T15:50:50;4.30;;;1.70;;
56399;SDS011;42298;53.638;9.876;2022-08-11T15:55:49;4.43;;;1.67;;
56399;SDS011;42298;53.638;9.876;2022-08-11T15:58:15;6.38;;;1.80;;
56399;SDS011;42298;53.638;9.876;2022-08-11T16:01:02;4.32;;;1.70;;
56399;SDS011;42298;53.638;9.876;2022-08-11T16:03:49;3.70;;;1.70;;
56399;SDS011;42298;53.638;9.876;2022-08-11T16:06:36;4.25;;;1.60;;
56399;SDS011;42298;53.638;9.876;2022-08-11T16:09:06;2.00;;;1.60;;
56399;SDS011;42298;53.638;9.876;2022-08-11T16:11:34;4.88;;;1.40;;
56399;SDS011;42298;53.638;9.876;2022-08-11T16:14:03;6.90;;;1.85;;
56399;SDS011;42298;53.638;9.876;2022-08-11T16:16:49;5.82;;;1.83;;
56399;SDS011;42298;53.638;9.876;2022-08-11T16:19:17;2.78;;;1.45;;
56399;SDS011;42298;53.638;9.876;2022-08-11T16:21:43;5.28;;;1.80;;
56399;SDS011;42298;53.638;9.876;2022-08-11T16:24:14;4.28;;;1.80;;
56399;SDS011;42298;53.638;9.876;2022-08-11T16:26:41;4.15;;;1.60;;
56399;SDS011;42298;53.638;9.876;2022-08-11T16:29:09;4.35;;;1.70;;
56399;SDS011;42298;53.638;9.876;2022-08-11T16:31:35;4.60;;;1.80;;
56399;SDS011;42298;53.638;9.876;2022-08-11T16:34:02;4.63;;;1.77;;
56399;SDS011;42298;53.638;9.876;2022-08-11T16:36:29;2.67;;;1.52;;
56399;SDS011;42298;53.638;9.876;2022-08-11T16:39:14;8.20;;;1.95;;
56399;SDS011;42298;53.638;9.876;2022-08-11T16:41:43;4.00;;;1.67;;
56399;SDS011;42298;53.638;9.876;2022-08-11T16:44:29;4.93;;;1.65;;
56399;SDS011;42298;53.638;9.876;2022-08-11T16:47:15;2.65;;;1.50;;
56399;SDS011;42298;53.638;9.876;2022-08-11T16:49:44;8.00;;;1.90;;
56399;SDS011;42298;53.638;9.876;2022-08-11T16:52:13;6.63;;;1.77;;
56399;SDS011;42298;53.638;9.876;2022-08-11T16:54:39;3.83;;;1.48;;
56399;SDS011;42298;53.638;9.876;2022-08-11T16:57:16;5.25;;;1.60;;
56399;SDS011;42298;53.638;9.876;2022-08-11T17:00:04;7.15;;;1.95;;
56399;SDS011;42298;53.638;9.876;2022-08-11T17:02:34;6.03;;;2.05;;
56399;SDS011;42298;53.638;9.876;2022-08-11T17:05:24;5.18;;;1.73;;
56399;SDS011;42298;53.638;9.876;2022-08-11T17:08:08;4.07;;;1.80;;
56399;SDS011;42298;53.638;9.876;2022-08-11T17:10:56;4.22;;;1.50;;
56399;SDS011;42298;53.638;9.876;2022-08-11T17:13:48;6.80;;;1.80;;
56399;SDS011;42298;53.638;9.876;2022-08-11T17:16:21;4.43;;;1.63;;
56399;SDS011;42298;53.638;9.876;2022-08-11T17:21:34;6.28;;;2.15;;
56399;SDS011;42298;53.638;9.876;2022-08-11T17:24:23;6.18;;;2.50;;
56399;SDS011;42298;53.638;9.876;2022-08-11T17:26:51;8.30;;;2.10;;
56399;SDS011;42298;53.638;9.876;2022-08-11T17:29:20;3.15;;;1.80;;
56399;SDS011;42298;53.638;9.876;2022-08-11T17:31:49;4.13;;;1.80;;
56399;SDS011;42298;53.638;9.876;2022-08-11T17:34:34;4.80;;;1.90;;
56399;SDS011;42298;53.638;9.876;2022-08-11T17:37:20;4.25;;;2.00;;
56399;SDS011;42298;53.638;9.876;2022-08-11T17:39:48;4.57;;;1.90;;
56399;SDS011;42298;53.638;9.876;2022-08-11T17:42:15;3.65;;;1.77;;
56399;SDS011;42298;53.638;9.876;2022-08-11T17:44:59;5.10;;;1.70;;
56399;SDS011;42298;53.638;9.876;2022-08-11T17:47:46;7.60;;;1.90;;
56399;SDS011;42298;53.638;9.876;2022-08-11T17:50:31;4.20;;;1.75;;
56399;SDS011;42298;53.638;9.876;2022-08-11T17:52:57;6.03;;;1.52;;
56399;SDS011;42298;53.638;9.876;2022-08-11T17:55:42;4.70;;;1.67;;
56399;SDS011;42298;53.638;9.876;2022-08-11T17:58:28;8.52;;;1.77;;
56399;SDS011;42298;53.638;9.876;2022-08-11T18:01:13;3.60;;;1.63;;
56399;SDS011;42298;53.638;9.876;2022-08-11T18:03:41;3.65;;;1.73;;
56399;SDS011;42298;53.638;9.876;2022-08-11T18:06:09;4.93;;;1.70;;
56399;SDS011;42298;53.638;9.876;2022-08-11T18:08:38;1.65;;;1.33;;
56399;SDS011;42298;53.638;9.876;2022-08-11T18:11:26;2.10;;;1.38;;
56399;SDS011;42298;53.638;9.876;2022-08-11T18:14:12;4.80;;;1.45;;
56399;SDS011;42298;53.638;9.876;2022-08-11T18:16:57;4.63;;;1.77;;
56399;SDS011;42298;53.638;9.876;2022-08-11T18:19:41;4.97;;;1.70;;
56399;SDS011;42298;53.638;9.876;2022-08-11T18:22:27;4.22;;;1.67;;
56399;SDS011;42298;53.638;9.876;2022-08-11T18:25:15;3.70;;;1.67;;
56399;SDS011;42298;53.638;9.876;2022-08-11T18:28:03;5.57;;;1.40;;
56399;SDS011;42298;53.638;9.876;2022-08-11T18:30:50;5.43;;;1.90;;
56399;SDS011;42298;53.638;9.876;2022-08-11T18:33:40;3.83;;;2.58;;
56399;SDS011;42298;53.638;9.876;2022-08-11T18:36:29;6.20;;;3.72;;
56399;SDS011;42298;53.638;9.876;2022-08-11T18:39:16;9.45;;;4.63;;
56399;SDS011;42298;53.638;9.876;2022-08-11T18:42:06;6.03;;;3.50;;
56399;SDS011;42298;53.638;9.876;2022-08-11T18:45:02;4.43;;;2.40;;
56399;SDS011;42298;53.638;9.876;2022-08-11T18:47:49;5.30;;;2.15;;
56399;SDS011;42298;53.638;9.876;2022-08-11T18:50:35;4.05;;;2.10;;
56399;SDS011;42298;53.638;9.876;2022-08-11T18:53:21;4.40;;;2.10;;
56399;SDS011;42298;53.638;9.876;2022-08-11T18:56:07;5.70;;;2.92;;
56399;SDS011;42298;53.638;9.876;2022-08-11T18:58:51;4.55;;;1.95;;